sensor_id;sensor_type;location;lat;lon;timestamp;P1;durP1;ratioP1;P2;durP2;ratioP2
4486;SDS011;2256;48.740;9.106;2023-12-07T00:00:45;12.15;;;5.50;;
4486;SDS011;2256;48.740;9.106;2023-12-07T00:03:11;10.35;;;4.88;;
4486;SDS011;2256;48.740;9.106;2023-12-07T00:05:40;13.35;;;5.40;;
4486;SDS011;2256;48.740;9.106;2023-12-07T00:08:09;9.10;;;5.15;;
4486;SDS011;2256;48.740;9.106;2023-12-07T00:10:37;12.13;;;4.72;;
4486;SDS011;2256;48.740;9.106;2023-12-07T00:13:04;15.32;;;5.95;;
4486;SDS011;2256;48.740;9.106;2023-12-07T00:15:30;8.63;;;4.70;;
4486;SDS011;2256;48.740;9.106;2023-12-07T00:17:57;7.53;;;4.25;;
4486;SDS011;2256;48.740;9.106;2023-12-07T00:20:25;9.70;;;5.13;;
4486;SDS011;2256;48.740;9.106;2023-12-07T00:22:52;9.77;;;5.43;;
4486;SDS011;2256;48.740;9.106;2023-12-07T00:25:19;7.97;;;4.18;;
4486;SDS011;2256;48.740;9.106;2023-12-07T00:27:47;11.07;;;4.57;;
4486;SDS011;2256;48.740;9.106;2023-12-07T00:30:14;10.20;;;5.55;;
4486;SDS011;2256;48.740;9.106;2023-12-07T00:32:41;9.63;;;4.90;;
4486;SDS011;2256;48.740;9.106;2023-12-07T00:35:08;10.38;;;4.72;;
4486;SDS011;2256;48.740;9.106;2023-12-07T00:37:35;7.15;;;4.00;;
4486;SDS011;2256;48.740;9.106;2023-12-07T00:40:03;12.07;;;5.10;;
4486;SDS011;2256;48.740;9.106;2023-12-07T00:42:30;8.20;;;4.07;;
4486;SDS011;2256;48.740;9.106;2023-12-07T00:44:58;9.60;;;4.53;;
4486;SDS011;2256;48.740;9.106;2023-12-07T00:47:25;13.23;;;5.20;;
4486;SDS011;2256;48.740;9.106;2023-12-07T00:49:52;8.40;;;5.30;;
4486;SDS011;2256;48.740;9.106;2023-12-07T00:52:19;6.97;;;4.13;;
4486;SDS011;2256;48.740;9.106;2023-12-07T00:54:45;6.72;;;3.80;;
4486;SDS011;2256;48.740;9.106;2023-12-07T00:57:12;10.13;;;4.90;;
4486;SDS011;2256;48.740;9.106;2023-12-07T00:59:39;12.07;;;4.80;;
4486;SDS011;2256;48.740;9.106;2023-12-07T01:02:08;10.23;;;4.55;;
4486;SDS011;2256;48.740;9.106;2023-12-07T01:04:35;9.15;;;4.35;;
4486;SDS011;2256;48.740;9.106;2023-12-07T01:07:02;9.88;;;4.72;;
4486;SDS011;2256;48.740;9.106;2023-12-07T01:09:29;9.98;;;4.57;;
4486;SDS011;2256;48.740;9.106;2023-12-07T01:11:56;8.95;;;4.40;;
4486;SDS011;2256;48.740;9.106;2023-12-07T01:14:23;7.43;;;4.32;;
4486;SDS011;2256;48.740;9.106;2023-12-07T01:16:50;7.28;;;3.97;;
4486;SDS011;2256;48.740;9.106;2023-12-07T01:19:18;10.63;;;4.43;;
4486;SDS011;2256;48.740;9.106;2023-12-07T01:21:46;8.50;;;4.50;;
4486;SDS011;2256;48.740;9.106;2023-12-07T01:24:13;8.00;;;4.13;;
4486;SDS011;2256;48.740;9.106;2023-12-07T01:26:40;7.40;;;4.03;;
4486;SDS011;2256;48.740;9.106;2023-12-07T01:29:07;7.85;;;4.57;;
4486;SDS011;2256;48.740;9.106;2023-12-07T01:31:33;15.50;;;4.82;;
4486;SDS011;2256;48.740;9.106;2023-12-07T01:34:00;6.60;;;4.07;;
4486;SDS011;2256;48.740;9.106;2023-12-07T01:36:28;8.27;;;4.45;;
4486;SDS011;2256;48.740;9.106;2023-12-07T01:38:55;8.15;;;4.38;;
4486;SDS011;2256;48.740;9.106;2023-12-07T01:41:22;12.18;;;4.13;;
4486;SDS011;2256;48.740;9.106;2023-12-07T01:43:49;8.02;;;4.75;;
4486;SDS011;2256;48.740;9.106;2023-12-07T01:46:16;7.18;;;4.07;;
4486;SDS011;2256;48.740;9.106;2023-12-07T01:48:44;13.05;;;4.80;;
4486;SDS011;2256;48.740;9.106;2023-12-07T01:51:13;8.40;;;3.53;;
4486;SDS011;2256;48.740;9.106;2023-12-07T01:53:45;7.45;;;4.25;;
4486;SDS011;2256;48.740;9.106;2023-12-07T01:56:14;7.00;;;4.65;;
4486;SDS011;2256;48.740;9.106;2023-12-07T01:58:41;11.48;;;4.45;;
4486;SDS011;2256;48.740;9.106;2023-12-07T02:01:09;7.80;;;4.35;;
4486;SDS011;2256;48.740;9.106;2023-12-07T02:03:38;7.05;;;3.90;;
4486;SDS011;2256;48.740;9.106;2023-12-07T02:06:06;5.43;;;3.30;;
4486;SDS011;2256;48.740;9.106;2023-12-07T02:08:35;10.85;;;4.53;;
4486;SDS011;2256;48.740;9.106;2023-12-07T02:11:07;9.68;;;4.88;;
4486;SDS011;2256;48.740;9.106;2023-12-07T02:13:35;7.70;;;4.20;;
4486;SDS011;2256;48.740;9.106;2023-12-07T02:16:03;7.47;;;4.10;;
4486;SDS011;2256;48.740;9.106;2023-12-07T02:18:38;5.00;;;3.83;;
4486;SDS011;2256;48.740;9.106;2023-12-07T02:21:11;7.35;;;4.53;;
4486;SDS011;2256;48.740;9.106;2023-12-07T02:23:45;6.78;;;3.90;;
4486;SDS011;2256;48.740;9.106;2023-12-07T02:26:14;7.43;;;4.90;;
4486;SDS011;2256;48.740;9.106;2023-12-07T02:28:47;7.28;;;3.88;;
4486;SDS011;2256;48.740;9.106;2023-12-07T02:31:14;7.22;;;4.22;;
4486;SDS011;2256;48.740;9.106;2023-12-07T02:33:41;7.28;;;3.90;;
4486;SDS011;2256;48.740;9.106;2023-12-07T02:36:08;10.55;;;4.15;;
4486;SDS011;2256;48.740;9.106;2023-12-07T02:38:35;7.93;;;3.75;;
4486;SDS011;2256;48.740;9.106;2023-12-07T02:41:04;13.55;;;5.22;;
4486;SDS011;2256;48.740;9.106;2023-12-07T02:43:32;6.45;;;3.70;;
4486;SDS011;2256;48.740;9.106;2023-12-07T02:46:01;7.53;;;4.20;;
4486;SDS011;2256;48.740;9.106;2023-12-07T02:48:28;10.63;;;4.40;;
4486;SDS011;2256;48.740;9.106;2023-12-07T02:50:55;6.25;;;4.05;;
4486;SDS011;2256;48.740;9.106;2023-12-07T02:53:22;11.23;;;4.68;;
4486;SDS011;2256;48.740;9.106;2023-12-07T02:55:49;17.77;;;5.72;;
4486;SDS011;2256;48.740;9.106;2023-12-07T02:58:16;17.13;;;5.47;;
4486;SDS011;2256;48.740;9.106;2023-12-07T03:00:42;17.08;;;6.60;;
4486;SDS011;2256;48.740;9.106;2023-12-07T03:03:10;12.55;;;6.30;;
4486;SDS011;2256;48.740;9.106;2023-12-07T03:05:37;16.63;;;5.70;;
4486;SDS011;2256;48.740;9.106;2023-12-07T03:08:04;9.57;;;5.35;;
4486;SDS011;2256;48.740;9.106;2023-12-07T03:10:31;13.45;;;6.30;;
4486;SDS011;2256;48.740;9.106;2023-12-07T03:12:58;13.93;;;6.90;;
4486;SDS011;2256;48.740;9.106;2023-12-07T03:15:24;17.45;;;6.93;;
4486;SDS011;2256;48.740;9.106;2023-12-07T03:17:51;20.20;;;6.35;;
4486;SDS011;2256;48.740;9.106;2023-12-07T03:20:19;20.17;;;7.45;;
4486;SDS011;2256;48.740;9.106;2023-12-07T03:22:46;18.42;;;6.53;;
4486;SDS011;2256;48.740;9.106;2023-12-07T03:25:13;13.88;;;7.15;;
4486;SDS011;2256;48.740;9.106;2023-12-07T03:27:40;14.38;;;6.30;;
4486;SDS011;2256;48.740;9.106;2023-12-07T03:30:07;11.45;;;5.28;;
4486;SDS011;2256;48.740;9.106;2023-12-07T03:32:34;15.70;;;5.15;;
4486;SDS011;2256;48.740;9.106;2023-12-07T03:35:01;12.43;;;5.85;;
4486;SDS011;2256;48.740;9.106;2023-12-07T03:37:29;13.10;;;5.95;;
4486;SDS011;2256;48.740;9.106;2023-12-07T03:39:56;14.55;;;6.43;;
4486;SDS011;2256;48.740;9.106;2023-12-07T03:42:23;25.27;;;6.70;;
4486;SDS011;2256;48.740;9.106;2023-12-07T03:44:50;13.55;;;6.40;;
4486;SDS011;2256;48.740;9.106;2023-12-07T03:47:17;13.70;;;6.22;;
4486;SDS011;2256;48.740;9.106;2023-12-07T03:49:45;20.92;;;6.78;;
4486;SDS011;2256;48.740;9.106;2023-12-07T03:52:11;11.27;;;6.20;;
4486;SDS011;2256;48.740;9.106;2023-12-07T03:54:40;15.40;;;5.65;;
4486;SDS011;2256;48.740;9.106;2023-12-07T03:57:06;18.73;;;6.28;;
4486;SDS011;2256;48.740;9.106;2023-12-07T03:59:35;9.68;;;4.53;;
4486;SDS011;2256;48.740;9.106;2023-12-07T04:02:02;11.07;;;5.82;;
4486;SDS011;2256;48.740;9.106;2023-12-07T04:04:29;12.23;;;6.07;;
4486;SDS011;2256;48.740;9.106;2023-12-07T04:06:57;11.95;;;5.53;;
4486;SDS011;2256;48.740;9.106;2023-12-07T04:09:24;12.07;;;5.50;;
4486;SDS011;2256;48.740;9.106;2023-12-07T04:11:53;12.77;;;5.53;;
4486;SDS011;2256;48.740;9.106;2023-12-07T04:14:19;9.73;;;4.90;;
4486;SDS011;2256;48.740;9.106;2023-12-07T04:16:46;14.05;;;5.25;;
4486;SDS011;2256;48.740;9.106;2023-12-07T04:19:13;15.55;;;6.15;;
4486;SDS011;2256;48.740;9.106;2023-12-07T04:21:40;14.52;;;5.82;;
4486;SDS011;2256;48.740;9.106;2023-12-07T04:24:07;20.98;;;4.75;;
4486;SDS011;2256;48.740;9.106;2023-12-07T04:26:34;10.40;;;5.22;;
4486;SDS011;2256;48.740;9.106;2023-12-07T04:29:02;15.38;;;5.43;;
4486;SDS011;2256;48.740;9.106;2023-12-07T04:31:29;10.02;;;5.20;;
4486;SDS011;2256;48.740;9.106;2023-12-07T04:33:55;11.98;;;5.82;;
4486;SDS011;2256;48.740;9.106;2023-12-07T04:36:22;16.48;;;6.03;;
4486;SDS011;2256;48.740;9.106;2023-12-07T04:38:49;18.83;;;6.15;;
4486;SDS011;2256;48.740;9.106;2023-12-07T04:41:16;12.52;;;4.70;;
4486;SDS011;2256;48.740;9.106;2023-12-07T04:43:43;12.60;;;5.20;;
4486;SDS011;2256;48.740;9.106;2023-12-07T04:46:11;12.27;;;5.68;;
4486;SDS011;2256;48.740;9.106;2023-12-07T04:48:38;14.35;;;4.80;;
4486;SDS011;2256;48.740;9.106;2023-12-07T04:51:05;9.45;;;4.82;;
4486;SDS011;2256;48.740;9.106;2023-12-07T04:53:32;15.43;;;5.70;;
4486;SDS011;2256;48.740;9.106;2023-12-07T04:55:59;13.05;;;4.85;;
4486;SDS011;2256;48.740;9.106;2023-12-07T04:58:26;14.35;;;5.72;;
4486;SDS011;2256;48.740;9.106;2023-12-07T05:00:52;14.80;;;5.63;;
4486;SDS011;2256;48.740;9.106;2023-12-07T05:03:22;12.02;;;5.10;;
4486;SDS011;2256;48.740;9.106;2023-12-07T05:05:48;10.07;;;5.40;;
4486;SDS011;2256;48.740;9.106;2023-12-07T05:08:15;9.23;;;5.30;;
4486;SDS011;2256;48.740;9.106;2023-12-07T05:10:43;11.13;;;4.93;;
4486;SDS011;2256;48.740;9.106;2023-12-07T05:13:09;10.00;;;5.95;;
4486;SDS011;2256;48.740;9.106;2023-12-07T05:15:37;15.50;;;5.85;;
4486;SDS011;2256;48.740;9.106;2023-12-07T05:18:04;19.00;;;4.83;;
4486;SDS011;2256;48.740;9.106;2023-12-07T05:20:32;16.33;;;5.85;;
4486;SDS011;2256;48.740;9.106;2023-12-07T05:22:59;7.68;;;4.93;;
4486;SDS011;2256;48.740;9.106;2023-12-07T05:25:26;20.13;;;5.25;;
4486;SDS011;2256;48.740;9.106;2023-12-07T05:27:52;7.93;;;4.22;;
4486;SDS011;2256;48.740;9.106;2023-12-07T05:30:19;16.73;;;5.10;;
4486;SDS011;2256;48.740;9.106;2023-12-07T05:32:46;9.77;;;4.50;;
4486;SDS011;2256;48.740;9.106;2023-12-07T05:35:13;11.90;;;5.53;;
4486;SDS011;2256;48.740;9.106;2023-12-07T05:37:41;10.57;;;4.95;;
4486;SDS011;2256;48.740;9.106;2023-12-07T05:40:09;11.98;;;5.60;;
4486;SDS011;2256;48.740;9.106;2023-12-07T05:42:37;11.65;;;4.65;;
4486;SDS011;2256;48.740;9.106;2023-12-07T05:45:04;7.63;;;4.28;;
4486;SDS011;2256;48.740;9.106;2023-12-07T05:47:32;10.13;;;4.70;;
4486;SDS011;2256;48.740;9.106;2023-12-07T05:49:59;14.00;;;4.97;;
4486;SDS011;2256;48.740;9.106;2023-12-07T05:52:28;8.75;;;4.50;;
4486;SDS011;2256;48.740;9.106;2023-12-07T05:54:56;24.38;;;5.35;;
4486;SDS011;2256;48.740;9.106;2023-12-07T05:57:23;13.65;;;5.03;;
4486;SDS011;2256;48.740;9.106;2023-12-07T05:59:49;8.27;;;4.90;;
4486;SDS011;2256;48.740;9.106;2023-12-07T06:02:16;10.43;;;5.43;;
4486;SDS011;2256;48.740;9.106;2023-12-07T06:04:43;9.63;;;4.75;;
4486;SDS011;2256;48.740;9.106;2023-12-07T06:07:10;9.82;;;5.00;;
4486;SDS011;2256;48.740;9.106;2023-12-07T06:09:38;10.70;;;4.90;;
4486;SDS011;2256;48.740;9.106;2023-12-07T06:12:08;9.05;;;4.43;;
4486;SDS011;2256;48.740;9.106;2023-12-07T06:14:35;11.75;;;5.07;;
4486;SDS011;2256;48.740;9.106;2023-12-07T06:17:01;15.57;;;5.72;;
4486;SDS011;2256;48.740;9.106;2023-12-07T06:19:28;8.82;;;5.20;;
4486;SDS011;2256;48.740;9.106;2023-12-07T06:21:55;11.32;;;5.10;;
4486;SDS011;2256;48.740;9.106;2023-12-07T06:24:23;15.85;;;5.10;;
4486;SDS011;2256;48.740;9.106;2023-12-07T06:26:50;8.88;;;5.13;;
4486;SDS011;2256;48.740;9.106;2023-12-07T06:29:18;8.77;;;4.07;;
4486;SDS011;2256;48.740;9.106;2023-12-07T06:31:45;13.90;;;6.15;;
4486;SDS011;2256;48.740;9.106;2023-12-07T06:34:12;10.88;;;5.22;;
4486;SDS011;2256;48.740;9.106;2023-12-07T06:36:38;9.00;;;4.97;;
4486;SDS011;2256;48.740;9.106;2023-12-07T06:39:05;10.95;;;5.40;;
4486;SDS011;2256;48.740;9.106;2023-12-07T06:41:32;12.65;;;5.90;;
4486;SDS011;2256;48.740;9.106;2023-12-07T06:43:59;11.77;;;5.40;;
4486;SDS011;2256;48.740;9.106;2023-12-07T06:46:27;12.15;;;5.68;;
4486;SDS011;2256;48.740;9.106;2023-12-07T06:48:54;26.98;;;6.60;;
4486;SDS011;2256;48.740;9.106;2023-12-07T06:51:21;16.75;;;6.70;;
4486;SDS011;2256;48.740;9.106;2023-12-07T06:53:48;18.05;;;6.78;;
4486;SDS011;2256;48.740;9.106;2023-12-07T06:56:15;25.50;;;6.40;;
4486;SDS011;2256;48.740;9.106;2023-12-07T06:58:42;11.38;;;6.15;;
4486;SDS011;2256;48.740;9.106;2023-12-07T07:01:09;10.32;;;4.93;;
4486;SDS011;2256;48.740;9.106;2023-12-07T07:03:37;12.82;;;5.80;;
4486;SDS011;2256;48.740;9.106;2023-12-07T07:06:04;13.30;;;4.90;;
4486;SDS011;2256;48.740;9.106;2023-12-07T07:08:31;16.27;;;7.03;;
4486;SDS011;2256;48.740;9.106;2023-12-07T07:10:57;11.52;;;5.97;;
4486;SDS011;2256;48.740;9.106;2023-12-07T07:13:24;15.02;;;6.65;;
4486;SDS011;2256;48.740;9.106;2023-12-07T07:15:51;10.18;;;6.05;;
4486;SDS011;2256;48.740;9.106;2023-12-07T07:18:19;12.82;;;5.13;;
4486;SDS011;2256;48.740;9.106;2023-12-07T07:20:50;13.63;;;7.35;;
4486;SDS011;2256;48.740;9.106;2023-12-07T07:23:17;14.48;;;6.30;;
4486;SDS011;2256;48.740;9.106;2023-12-07T07:25:44;12.07;;;5.80;;
4486;SDS011;2256;48.740;9.106;2023-12-07T07:28:11;22.00;;;6.63;;
4486;SDS011;2256;48.740;9.106;2023-12-07T07:30:37;12.68;;;5.97;;
4486;SDS011;2256;48.740;9.106;2023-12-07T07:33:04;16.70;;;6.57;;
4486;SDS011;2256;48.740;9.106;2023-12-07T07:35:31;23.85;;;6.72;;
4486;SDS011;2256;48.740;9.106;2023-12-07T07:37:59;15.80;;;6.03;;
4486;SDS011;2256;48.740;9.106;2023-12-07T07:40:26;16.15;;;6.93;;
4486;SDS011;2256;48.740;9.106;2023-12-07T07:42:53;14.02;;;6.32;;
4486;SDS011;2256;48.740;9.106;2023-12-07T07:45:20;21.45;;;6.97;;
4486;SDS011;2256;48.740;9.106;2023-12-07T07:47:47;12.20;;;5.68;;
4486;SDS011;2256;48.740;9.106;2023-12-07T07:50:14;16.63;;;6.30;;
4486;SDS011;2256;48.740;9.106;2023-12-07T07:52:41;11.90;;;4.95;;
4486;SDS011;2256;48.740;9.106;2023-12-07T07:55:10;9.63;;;5.45;;
4486;SDS011;2256;48.740;9.106;2023-12-07T07:57:37;11.98;;;5.22;;
4486;SDS011;2256;48.740;9.106;2023-12-07T08:00:04;20.48;;;7.05;;
4486;SDS011;2256;48.740;9.106;2023-12-07T08:02:33;10.40;;;5.95;;
4486;SDS011;2256;48.740;9.106;2023-12-07T08:05:00;13.95;;;5.32;;
4486;SDS011;2256;48.740;9.106;2023-12-07T08:07:27;14.13;;;6.40;;
4486;SDS011;2256;48.740;9.106;2023-12-07T08:09:54;14.30;;;6.15;;
4486;SDS011;2256;48.740;9.106;2023-12-07T08:12:22;16.33;;;7.05;;
4486;SDS011;2256;48.740;9.106;2023-12-07T08:14:49;21.20;;;8.05;;
4486;SDS011;2256;48.740;9.106;2023-12-07T08:17:16;20.85;;;7.20;;
4486;SDS011;2256;48.740;9.106;2023-12-07T08:19:44;20.33;;;7.32;;
4486;SDS011;2256;48.740;9.106;2023-12-07T08:22:11;14.65;;;6.72;;
4486;SDS011;2256;48.740;9.106;2023-12-07T08:24:38;14.90;;;6.72;;
4486;SDS011;2256;48.740;9.106;2023-12-07T08:27:05;25.05;;;8.60;;
4486;SDS011;2256;48.740;9.106;2023-12-07T08:29:33;14.10;;;6.05;;
4486;SDS011;2256;48.740;9.106;2023-12-07T08:32:00;12.43;;;5.90;;
4486;SDS011;2256;48.740;9.106;2023-12-07T08:34:27;18.95;;;6.68;;
4486;SDS011;2256;48.740;9.106;2023-12-07T08:36:54;22.17;;;6.53;;
4486;SDS011;2256;48.740;9.106;2023-12-07T08:39:21;13.60;;;7.18;;
4486;SDS011;2256;48.740;9.106;2023-12-07T08:41:48;12.65;;;6.82;;
4486;SDS011;2256;48.740;9.106;2023-12-07T08:44:14;13.95;;;6.63;;
4486;SDS011;2256;48.740;9.106;2023-12-07T08:46:43;15.30;;;7.38;;
4486;SDS011;2256;48.740;9.106;2023-12-07T08:49:10;13.05;;;6.72;;
4486;SDS011;2256;48.740;9.106;2023-12-07T08:51:37;14.00;;;5.75;;
4486;SDS011;2256;48.740;9.106;2023-12-07T08:54:04;14.80;;;5.50;;
4486;SDS011;2256;48.740;9.106;2023-12-07T08:56:31;11.00;;;5.43;;
4486;SDS011;2256;48.740;9.106;2023-12-07T08:58:58;9.73;;;4.80;;
4486;SDS011;2256;48.740;9.106;2023-12-07T09:01:25;8.47;;;4.63;;
4486;SDS011;2256;48.740;9.106;2023-12-07T09:03:54;10.90;;;4.40;;
4486;SDS011;2256;48.740;9.106;2023-12-07T09:06:20;7.40;;;4.00;;
4486;SDS011;2256;48.740;9.106;2023-12-07T09:08:47;8.00;;;4.10;;
4486;SDS011;2256;48.740;9.106;2023-12-07T09:11:14;6.30;;;3.87;;
4486;SDS011;2256;48.740;9.106;2023-12-07T09:13:41;6.07;;;4.10;;
4486;SDS011;2256;48.740;9.106;2023-12-07T09:16:08;7.93;;;4.10;;
4486;SDS011;2256;48.740;9.106;2023-12-07T09:18:34;9.63;;;4.03;;
4486;SDS011;2256;48.740;9.106;2023-12-07T09:21:03;6.63;;;4.30;;
4486;SDS011;2256;48.740;9.106;2023-12-07T09:23:30;6.73;;;4.50;;
4486;SDS011;2256;48.740;9.106;2023-12-07T09:25:57;10.50;;;4.73;;
4486;SDS011;2256;48.740;9.106;2023-12-07T09:28:24;14.47;;;5.17;;
4486;SDS011;2256;48.740;9.106;2023-12-07T09:30:51;9.27;;;3.90;;
4486;SDS011;2256;48.740;9.106;2023-12-07T09:33:18;28.77;;;10.30;;
4486;SDS011;2256;48.740;9.106;2023-12-07T09:35:45;11.60;;;5.45;;
4486;SDS011;2256;48.740;9.106;2023-12-07T09:38:13;9.07;;;4.93;;
4486;SDS011;2256;48.740;9.106;2023-12-07T09:40:40;7.75;;;4.05;;
4486;SDS011;2256;48.740;9.106;2023-12-07T09:43:07;7.50;;;3.95;;
4486;SDS011;2256;48.740;9.106;2023-12-07T09:45:34;9.18;;;4.28;;
4486;SDS011;2256;48.740;9.106;2023-12-07T09:48:01;11.73;;;4.28;;
4486;SDS011;2256;48.740;9.106;2023-12-07T09:50:29;9.23;;;4.38;;
4486;SDS011;2256;48.740;9.106;2023-12-07T09:52:57;7.70;;;3.80;;
4486;SDS011;2256;48.740;9.106;2023-12-07T09:55:25;10.25;;;4.70;;
4486;SDS011;2256;48.740;9.106;2023-12-07T09:57:52;5.10;;;2.80;;
4486;SDS011;2256;48.740;9.106;2023-12-07T10:00:22;9.82;;;3.42;;
4486;SDS011;2256;48.740;9.106;2023-12-07T10:02:49;7.00;;;4.38;;
4486;SDS011;2256;48.740;9.106;2023-12-07T10:05:16;4.60;;;3.13;;
4486;SDS011;2256;48.740;9.106;2023-12-07T10:07:44;11.20;;;3.90;;
4486;SDS011;2256;48.740;9.106;2023-12-07T10:10:12;6.47;;;3.45;;
4486;SDS011;2256;48.740;9.106;2023-12-07T10:12:46;9.25;;;3.42;;
4486;SDS011;2256;48.740;9.106;2023-12-07T10:15:14;5.05;;;3.65;;
4486;SDS011;2256;48.740;9.106;2023-12-07T10:17:45;19.60;;;4.47;;
4486;SDS011;2256;48.740;9.106;2023-12-07T10:20:14;10.02;;;4.97;;
4486;SDS011;2256;48.740;9.106;2023-12-07T10:22:41;6.80;;;3.25;;
4486;SDS011;2256;48.740;9.106;2023-12-07T10:25:09;9.23;;;3.90;;
4486;SDS011;2256;48.740;9.106;2023-12-07T10:27:37;9.43;;;4.13;;
4486;SDS011;2256;48.740;9.106;2023-12-07T10:30:08;8.85;;;4.30;;
4486;SDS011;2256;48.740;9.106;2023-12-07T10:32:36;11.43;;;4.60;;
4486;SDS011;2256;48.740;9.106;2023-12-07T10:35:05;9.63;;;4.30;;
4486;SDS011;2256;48.740;9.106;2023-12-07T10:37:34;8.52;;;4.25;;
4486;SDS011;2256;48.740;9.106;2023-12-07T10:40:01;10.02;;;3.40;;
4486;SDS011;2256;48.740;9.106;2023-12-07T10:42:32;8.35;;;4.30;;
4486;SDS011;2256;48.740;9.106;2023-12-07T10:45:03;7.55;;;4.03;;
4486;SDS011;2256;48.740;9.106;2023-12-07T10:47:33;8.80;;;4.07;;
4486;SDS011;2256;48.740;9.106;2023-12-07T10:50:02;16.38;;;4.82;;
4486;SDS011;2256;48.740;9.106;2023-12-07T10:52:32;14.30;;;4.53;;
4486;SDS011;2256;48.740;9.106;2023-12-07T10:55:03;7.38;;;3.95;;
4486;SDS011;2256;48.740;9.106;2023-12-07T10:57:33;13.80;;;5.32;;
4486;SDS011;2256;48.740;9.106;2023-12-07T11:00:02;7.43;;;3.78;;
4486;SDS011;2256;48.740;9.106;2023-12-07T11:02:31;5.70;;;3.80;;
4486;SDS011;2256;48.740;9.106;2023-12-07T11:05:01;15.13;;;4.28;;
4486;SDS011;2256;48.740;9.106;2023-12-07T11:07:31;8.68;;;4.43;;
4486;SDS011;2256;48.740;9.106;2023-12-07T11:10:06;9.52;;;4.00;;
4486;SDS011;2256;48.740;9.106;2023-12-07T11:12:39;9.60;;;4.32;;
4486;SDS011;2256;48.740;9.106;2023-12-07T11:15:13;7.13;;;4.15;;
4486;SDS011;2256;48.740;9.106;2023-12-07T11:17:51;10.25;;;4.95;;
4486;SDS011;2256;48.740;9.106;2023-12-07T11:20:19;7.70;;;3.90;;
4486;SDS011;2256;48.740;9.106;2023-12-07T11:22:47;11.43;;;4.03;;
4486;SDS011;2256;48.740;9.106;2023-12-07T11:25:15;5.60;;;3.42;;
4486;SDS011;2256;48.740;9.106;2023-12-07T11:27:45;8.15;;;3.30;;
4486;SDS011;2256;48.740;9.106;2023-12-07T11:30:13;6.43;;;3.33;;
4486;SDS011;2256;48.740;9.106;2023-12-07T11:32:42;6.05;;;3.15;;
4486;SDS011;2256;48.740;9.106;2023-12-07T11:35:13;5.50;;;3.13;;
4486;SDS011;2256;48.740;9.106;2023-12-07T11:40:26;7.20;;;3.80;;
4486;SDS011;2256;48.740;9.106;2023-12-07T11:42:54;6.40;;;2.85;;
4486;SDS011;2256;48.740;9.106;2023-12-07T11:45:35;12.52;;;3.35;;
4486;SDS011;2256;48.740;9.106;2023-12-07T11:48:10;4.80;;;2.70;;
4486;SDS011;2256;48.740;9.106;2023-12-07T11:53:25;8.93;;;2.75;;
4486;SDS011;2256;48.740;9.106;2023-12-07T11:55:54;16.58;;;3.72;;
4486;SDS011;2256;48.740;9.106;2023-12-07T11:58:21;7.32;;;2.50;;
4486;SDS011;2256;48.740;9.106;2023-12-07T12:00:48;4.43;;;3.30;;
4486;SDS011;2256;48.740;9.106;2023-12-07T12:03:17;8.23;;;3.10;;
4486;SDS011;2256;48.740;9.106;2023-12-07T12:05:44;5.22;;;3.28;;
4486;SDS011;2256;48.740;9.106;2023-12-07T12:08:13;6.45;;;3.00;;
4486;SDS011;2256;48.740;9.106;2023-12-07T12:10:40;4.40;;;3.13;;
4486;SDS011;2256;48.740;9.106;2023-12-07T12:13:08;5.80;;;3.05;;
4486;SDS011;2256;48.740;9.106;2023-12-07T12:15:36;6.80;;;3.30;;
4486;SDS011;2256;48.740;9.106;2023-12-07T12:18:03;5.97;;;3.50;;
4486;SDS011;2256;48.740;9.106;2023-12-07T12:20:30;9.18;;;3.58;;
4486;SDS011;2256;48.740;9.106;2023-12-07T12:22:58;5.00;;;3.72;;
4486;SDS011;2256;48.740;9.106;2023-12-07T12:25:27;3.33;;;3.03;;
4486;SDS011;2256;48.740;9.106;2023-12-07T12:27:56;7.45;;;3.25;;
4486;SDS011;2256;48.740;9.106;2023-12-07T12:30:26;7.13;;;2.72;;
4486;SDS011;2256;48.740;9.106;2023-12-07T12:32:54;8.98;;;3.67;;
4486;SDS011;2256;48.740;9.106;2023-12-07T12:35:22;10.05;;;4.63;;
4486;SDS011;2256;48.740;9.106;2023-12-07T12:37:50;9.98;;;3.03;;
4486;SDS011;2256;48.740;9.106;2023-12-07T12:40:17;5.75;;;3.88;;
4486;SDS011;2256;48.740;9.106;2023-12-07T12:42:47;3.97;;;2.95;;
4486;SDS011;2256;48.740;9.106;2023-12-07T12:45:15;21.23;;;2.80;;
4486;SDS011;2256;48.740;9.106;2023-12-07T12:47:43;8.15;;;3.33;;
4486;SDS011;2256;48.740;9.106;2023-12-07T12:50:11;7.07;;;3.03;;
4486;SDS011;2256;48.740;9.106;2023-12-07T12:52:39;10.57;;;3.63;;
4486;SDS011;2256;48.740;9.106;2023-12-07T12:55:07;9.00;;;3.60;;
4486;SDS011;2256;48.740;9.106;2023-12-07T12:57:35;4.15;;;2.85;;
4486;SDS011;2256;48.740;9.106;2023-12-07T13:00:05;5.95;;;3.42;;
4486;SDS011;2256;48.740;9.106;2023-12-07T13:02:33;5.32;;;3.53;;
4486;SDS011;2256;48.740;9.106;2023-12-07T13:05:00;7.65;;;3.17;;
4486;SDS011;2256;48.740;9.106;2023-12-07T13:07:27;5.47;;;3.08;;
4486;SDS011;2256;48.740;9.106;2023-12-07T13:09:53;5.00;;;3.20;;
4486;SDS011;2256;48.740;9.106;2023-12-07T13:12:21;4.72;;;2.85;;
4486;SDS011;2256;48.740;9.106;2023-12-07T13:14:48;5.85;;;2.75;;
4486;SDS011;2256;48.740;9.106;2023-12-07T13:17:16;6.22;;;2.70;;
4486;SDS011;2256;48.740;9.106;2023-12-07T13:19:43;3.40;;;2.55;;
4486;SDS011;2256;48.740;9.106;2023-12-07T13:22:10;8.15;;;3.88;;
4486;SDS011;2256;48.740;9.106;2023-12-07T13:24:37;5.75;;;4.03;;
4486;SDS011;2256;48.740;9.106;2023-12-07T13:27:04;8.23;;;3.45;;
4486;SDS011;2256;48.740;9.106;2023-12-07T13:29:31;7.57;;;4.30;;
4486;SDS011;2256;48.740;9.106;2023-12-07T13:31:58;6.60;;;3.95;;
4486;SDS011;2256;48.740;9.106;2023-12-07T13:34:26;5.40;;;3.42;;
4486;SDS011;2256;48.740;9.106;2023-12-07T13:36:53;5.40;;;3.55;;
4486;SDS011;2256;48.740;9.106;2023-12-07T13:39:20;6.85;;;3.97;;
4486;SDS011;2256;48.740;9.106;2023-12-07T13:41:47;4.13;;;3.33;;
4486;SDS011;2256;48.740;9.106;2023-12-07T13:44:15;7.93;;;3.33;;
4486;SDS011;2256;48.740;9.106;2023-12-07T13:46:43;8.13;;;4.03;;
4486;SDS011;2256;48.740;9.106;2023-12-07T13:49:10;6.18;;;3.45;;
4486;SDS011;2256;48.740;9.106;2023-12-07T13:51:38;3.55;;;3.00;;
4486;SDS011;2256;48.740;9.106;2023-12-07T13:54:06;5.50;;;3.28;;
4486;SDS011;2256;48.740;9.106;2023-12-07T13:56:33;11.82;;;4.15;;
4486;SDS011;2256;48.740;9.106;2023-12-07T13:59:00;4.30;;;3.33;;
4486;SDS011;2256;48.740;9.106;2023-12-07T14:01:27;13.75;;;3.70;;
4486;SDS011;2256;48.740;9.106;2023-12-07T14:03:57;7.18;;;3.35;;
4486;SDS011;2256;48.740;9.106;2023-12-07T14:06:24;8.57;;;3.53;;
4486;SDS011;2256;48.740;9.106;2023-12-07T14:08:52;4.28;;;3.22;;
4486;SDS011;2256;48.740;9.106;2023-12-07T14:11:21;7.38;;;3.08;;
4486;SDS011;2256;48.740;9.106;2023-12-07T14:13:47;6.65;;;3.38;;
4486;SDS011;2256;48.740;9.106;2023-12-07T14:16:18;7.22;;;3.78;;
4486;SDS011;2256;48.740;9.106;2023-12-07T14:18:45;4.47;;;2.50;;
4486;SDS011;2256;48.740;9.106;2023-12-07T14:21:12;6.18;;;3.05;;
4486;SDS011;2256;48.740;9.106;2023-12-07T14:23:39;3.20;;;2.42;;
4486;SDS011;2256;48.740;9.106;2023-12-07T14:26:07;3.60;;;2.60;;
4486;SDS011;2256;48.740;9.106;2023-12-07T14:28:35;5.88;;;2.85;;
4486;SDS011;2256;48.740;9.106;2023-12-07T14:31:02;4.20;;;2.88;;
4486;SDS011;2256;48.740;9.106;2023-12-07T14:33:29;5.13;;;2.95;;
4486;SDS011;2256;48.740;9.106;2023-12-07T14:35:56;3.08;;;2.50;;
4486;SDS011;2256;48.740;9.106;2023-12-07T14:38:23;11.77;;;2.63;;
4486;SDS011;2256;48.740;9.106;2023-12-07T14:40:49;3.72;;;2.22;;
4486;SDS011;2256;48.740;9.106;2023-12-07T14:43:18;8.40;;;3.30;;
4486;SDS011;2256;48.740;9.106;2023-12-07T14:45:45;5.97;;;3.03;;
4486;SDS011;2256;48.740;9.106;2023-12-07T14:48:12;4.32;;;2.80;;
4486;SDS011;2256;48.740;9.106;2023-12-07T14:50:38;6.90;;;2.33;;
4486;SDS011;2256;48.740;9.106;2023-12-07T14:53:05;5.72;;;2.97;;
4486;SDS011;2256;48.740;9.106;2023-12-07T14:55:32;2.75;;;1.48;;
4486;SDS011;2256;48.740;9.106;2023-12-07T14:57:59;1.83;;;1.73;;
4486;SDS011;2256;48.740;9.106;2023-12-07T15:00:27;7.63;;;2.33;;
4486;SDS011;2256;48.740;9.106;2023-12-07T15:02:54;4.28;;;2.47;;
4486;SDS011;2256;48.740;9.106;2023-12-07T15:05:21;6.13;;;2.08;;
4486;SDS011;2256;48.740;9.106;2023-12-07T15:07:48;6.25;;;1.77;;
4486;SDS011;2256;48.740;9.106;2023-12-07T15:10:16;13.02;;;2.83;;
4486;SDS011;2256;48.740;9.106;2023-12-07T15:12:43;3.08;;;1.70;;
4486;SDS011;2256;48.740;9.106;2023-12-07T15:15:10;2.40;;;1.92;;